UNNT/OVB METAR and TAF weather

Enter ICAO airport designator
Station Type Date Time Source
UNNT METAR 2024/06/14 02:00 UTC NOAA

UNNT 140200Z 36002MPS CAVOK 23/14 Q1012 R25/090070 R16/////// NOSIG RMK QFE749/0999


Station Type Date Time Source
UNNT Decoded METAR 2024/06/14 02:00 UTC NOAA

Station name not available
Jun 13, 2024 - 10:00 PM EDT / 2024.06.14 0200 UTC
Wind: from the N (360 degrees) at 4 MPH (4 KT):0
Visibility: greater than 7 mile(s):0
Temperature: 73 F (23 C)
Dew Point: 57 F (14 C)
Relative Humidity: 56%
Pressure (altimeter): 29.88 in. Hg (1012 hPa)
ob: UNNT 140200Z 36002MPS CAVOK 23/14 Q1012 R25/090070 R16/////// NOSIG RMK QFE749/0999
cycle: 2

Station Type Date Time Source
UNNT TAF 2024/06/13 21:21 UTC NOAA